Time;durP1;ratioP1;P1;durP2;ratioP2;P2;SDS_P1;SDS_P2;PMS_P1;PMS_P2;Temp;Humidity;BMP_temperature;BMP_pressure;BME280_temperature;BME280_humidity;BME280_pressure;Samples;Min_cycle;Max_cycle;Signal;HPM_P1;HPM_P2
2022/07/09 00:01:13;;;;;;;21.43;6.97;;;14.60;88.80;;;;;;5055130;28;20203;-84
2022/07/09 00:03:38;;;;;;;21.73;6.47;;;14.60;88.80;;;;;;5053870;28;20172;-85
2022/07/09 00:06:04;;;;;;;20.20;6.70;;;14.60;89.00;;;;;;5055315;28;20563;-84
2022/07/09 00:08:29;;;;;;;26.63;6.93;;;14.60;89.10;;;;;;5053413;28;20657;-85
2022/07/09 00:10:55;;;;;;;16.30;6.07;;;14.60;89.10;;;;;;5053361;28;20689;-84
2022/07/09 00:13:20;;;;;;;21.53;6.90;;;14.60;89.10;;;;;;5053708;28;20226;-84
2022/07/09 00:15:46;;;;;;;19.03;6.10;;;14.60;89.10;;;;;;5054933;28;20175;-84
2022/07/09 00:18:11;;;;;;;16.63;6.83;;;14.50;89.40;;;;;;5053511;28;20204;-84
2022/07/09 00:20:37;;;;;;;22.30;7.63;;;14.60;89.40;;;;;;5053628;28;20172;-85
2022/07/09 00:23:03;;;;;;;24.23;6.57;;;14.60;89.50;;;;;;5054632;28;20556;-84
2022/07/09 00:25:28;;;;;;;17.70;6.47;;;14.70;89.40;;;;;;5053544;28;20661;-85
2022/07/09 00:27:54;;;;;;;23.83;7.10;;;14.70;89.40;;;;;;5055130;28;20182;-85
2022/07/09 00:30:19;;;;;;;23.00;6.97;;;14.60;89.40;;;;;;5055071;28;20255;-84
2022/07/09 00:32:45;;;;;;;25.47;6.67;;;14.60;89.40;;;;;;5053301;28;20242;-85
2022/07/09 00:35:10;;;;;;;23.20;6.73;;;14.60;89.40;;;;;;5055399;28;20180;-85
2022/07/09 00:37:36;;;;;;;19.03;6.57;;;14.60;89.50;;;;;;5053231;28;20219;-86
2022/07/09 00:40:01;;;;;;;22.07;6.73;;;14.60;89.50;;;;;;5053315;28;20182;-85
2022/07/09 00:42:27;;;;;;;24.40;7.60;;;14.50;89.90;;;;;;5054181;28;20199;-86
2022/07/09 00:44:53;;;;;;;25.03;7.10;;;14.50;89.90;;;;;;5054288;28;20191;-85
2022/07/09 00:47:18;;;;;;;21.90;6.83;;;14.50;89.70;;;;;;5054727;28;20226;-85
2022/07/09 00:49:44;;;;;;;21.27;6.60;;;14.50;89.60;;;;;;5056810;28;20279;-85
2022/07/09 00:52:13;;;;;;;16.53;6.83;;;14.50;89.50;;;;;;5053214;28;20691;-86
2022/07/09 00:54:40;;;;;;;19.03;7.00;;;14.50;89.40;;;;;;5054895;28;20176;-85
2022/07/09 00:57:07;;;;;;;20.03;6.73;;;14.60;89.30;;;;;;5053118;28;20261;-85
2022/07/09 00:59:35;;;;;;;19.67;7.00;;;14.60;89.50;;;;;;5053100;28;20701;-85
2022/07/09 01:02:01;;;;;;;22.90;6.90;;;14.60;89.50;;;;;;5054268;28;20203;-87
2022/07/09 01:04:27;;;;;;;21.87;6.67;;;14.60;89.50;;;;;;5053849;28;20168;-86
2022/07/09 01:06:52;;;;;;;27.27;6.60;;;14.60;89.50;;;;;;5053786;28;20198;-87
2022/07/09 01:09:18;;;;;;;21.77;6.37;;;14.60;89.60;;;;;;5054054;28;20215;-87
2022/07/09 01:11:44;;;;;;;23.57;7.20;;;14.70;89.70;;;;;;5052808;28;20235;-87
2022/07/09 01:14:10;;;;;;;22.00;7.03;;;14.60;89.90;;;;;;5054000;28;20649;-87
2022/07/09 01:16:37;;;;;;;17.50;6.33;;;14.60;90.10;;;;;;5053921;28;20208;-87
2022/07/09 01:19:03;;;;;;;22.23;6.00;;;14.70;90.20;;;;;;5053729;28;20572;-87
2022/07/09 01:21:30;;;;;;;19.03;6.33;;;14.70;90.20;;;;;;5052350;28;20195;-87
2022/07/09 01:23:56;;;;;;;20.13;6.90;;;14.70;90.20;;;;;;5052315;28;20266;-87
2022/07/09 01:26:23;;;;;;;17.80;6.40;;;14.70;90.20;;;;;;5052688;28;20187;-87
2022/07/09 01:28:48;;;;;;;22.80;6.40;;;14.70;90.30;;;;;;5053810;28;20204;-87
2022/07/09 01:31:15;;;;;;;15.33;6.60;;;14.80;90.30;;;;;;5052322;28;20243;-87
2022/07/09 01:33:41;;;;;;;24.07;6.53;;;14.80;90.40;;;;;;5052295;28;20290;-87
2022/07/09 01:36:08;;;;;;;16.20;6.50;;;14.70;90.30;;;;;;5052247;28;20567;-87
2022/07/09 01:38:33;;;;;;;13.00;6.07;;;14.70;90.40;;;;;;5052172;28;20180;-87
2022/07/09 01:40:59;;;;;;;18.70;7.03;;;14.80;90.50;;;;;;5053441;28;20192;-87
2022/07/09 01:43:25;;;;;;;15.13;6.60;;;14.80;90.40;;;;;;5053736;28;20229;-87
2022/07/09 01:45:50;;;;;;;16.53;7.00;;;14.80;90.50;;;;;;5052598;28;20263;-88
2022/07/09 01:48:16;;;;;;;17.87;6.30;;;14.70;90.60;;;;;;5053736;28;20269;-87
2022/07/09 01:50:41;;;;;;;23.33;6.53;;;14.80;90.50;;;;;;5053538;28;20175;-87
2022/07/09 01:53:07;;;;;;;17.07;6.47;;;14.80;90.60;;;;;;5052165;28;20184;-87
2022/07/09 01:55:33;;;;;;;16.40;6.73;;;14.80;90.60;;;;;;5053722;28;20176;-87
2022/07/09 01:57:59;;;;;;;19.60;7.20;;;14.80;90.60;;;;;;5053353;28;20203;-87
2022/07/09 02:00:27;;;;;;;22.53;7.13;;;14.90;90.50;;;;;;5052137;28;20234;-87
2022/07/09 02:02:53;;;;;;;23.37;6.50;;;14.90;90.50;;;;;;5052107;28;20670;-87
2022/07/09 02:05:19;;;;;;;20.93;7.40;;;14.90;90.60;;;;;;5052292;28;20210;-87
2022/07/09 02:07:45;;;;;;;20.10;6.43;;;14.80;90.60;;;;;;5052367;28;20234;-88
2022/07/09 02:10:10;;;;;;;16.23;7.10;;;14.80;90.80;;;;;;5052276;28;20533;-88
2022/07/09 02:12:36;;;;;;;20.27;7.43;;;14.90;90.80;;;;;;5051838;28;20204;-87
2022/07/09 02:15:01;;;;;;;24.57;8.27;;;14.80;90.80;;;;;;5053107;28;20176;-87
2022/07/09 02:17:27;;;;;;;19.13;6.90;;;14.90;90.80;;;;;;5053014;28;20204;-87
2022/07/09 02:19:52;;;;;;;20.20;7.30;;;14.90;90.80;;;;;;5051757;28;20697;-87
2022/07/09 02:22:18;;;;;;;19.53;6.47;;;14.90;90.80;;;;;;5052047;28;20192;-87
2022/07/09 02:24:43;;;;;;;20.80;6.17;;;14.90;90.80;;;;;;5051953;28;20533;-87
2022/07/09 02:27:09;;;;;;;17.03;7.73;;;14.90;90.70;;;;;;5053095;28;20183;-88
2022/07/09 02:29:35;;;;;;;17.20;7.27;;;14.90;90.80;;;;;;5053180;28;20544;-87
2022/07/09 02:32:00;;;;;;;20.33;6.00;;;14.90;90.70;;;;;;5052134;28;20204;-87
2022/07/09 02:34:26;;;;;;;18.67;6.63;;;14.90;90.90;;;;;;5057022;28;20263;-87
2022/07/09 02:36:52;;;;;;;13.63;6.70;;;14.90;90.90;;;;;;5055752;28;20299;-88
2022/07/09 02:39:17;;;;;;;19.87;7.07;;;14.90;91.00;;;;;;5055683;28;20176;-87
2022/07/09 02:41:43;;;;;;;21.17;6.73;;;14.90;91.00;;;;;;5055328;28;20245;-87
2022/07/09 02:44:09;;;;;;;16.33;5.87;;;14.80;91.00;;;;;;5055300;28;20233;-87
2022/07/09 02:46:34;;;;;;;25.63;7.97;;;14.80;91.20;;;;;;5055260;28;20279;-88
2022/07/09 02:49:00;;;;;;;17.07;7.20;;;14.80;91.30;;;;;;5056523;28;20259;-87
2022/07/09 02:51:25;;;;;;;23.60;8.07;;;14.80;91.20;;;;;;5056272;28;20200;-87
2022/07/09 02:53:51;;;;;;;20.77;8.20;;;14.80;91.20;;;;;;5056362;28;20183;-87
2022/07/09 02:56:16;;;;;;;29.20;9.10;;;14.80;91.30;;;;;;5055087;28;20212;-87
2022/07/09 02:58:42;;;;;;;19.53;8.30;;;14.90;91.30;;;;;;5055146;28;20221;-87
2022/07/09 03:01:07;;;;;;;22.37;7.90;;;14.90;91.50;;;;;;5055232;28;20252;-87
2022/07/09 03:03:36;;;;;;;23.57;8.60;;;14.90;91.50;;;;;;5056746;28;20641;-87
2022/07/09 03:06:03;;;;;;;20.43;7.90;;;14.80;91.80;;;;;;5055159;28;20176;-87
2022/07/09 03:08:29;;;;;;;20.60;9.10;;;14.80;92.00;;;;;;5055187;28;20176;-87
2022/07/09 03:10:54;;;;;;;24.53;8.93;;;14.80;92.20;;;;;;5054964;28;20692;-86
2022/07/09 03:13:20;;;;;;;20.00;9.40;;;14.80;92.30;;;;;;5056017;28;20172;-87
2022/07/09 03:15:46;;;;;;;21.30;9.73;;;14.80;92.30;;;;;;5054912;28;20272;-87
2022/07/09 03:18:11;;;;;;;18.07;8.67;;;14.80;92.40;;;;;;5054881;28;20204;-87
2022/07/09 03:20:37;;;;;;;22.13;10.37;;;14.70;92.40;;;;;;5055931;28;20183;-87
2022/07/09 03:23:04;;;;;;;20.80;8.93;;;14.70;92.60;;;;;;5055993;28;20593;-87
2022/07/09 03:25:30;;;;;;;26.37;10.13;;;14.70;92.60;;;;;;5054659;28;20194;-86
2022/07/09 03:27:55;;;;;;;14.67;8.40;;;14.70;92.50;;;;;;5054757;28;20195;-87
2022/07/09 03:30:21;;;;;;;16.90;9.83;;;14.70;92.50;;;;;;5054604;28;20199;-87
2022/07/09 03:32:46;;;;;;;18.03;10.30;;;14.70;92.60;;;;;;5054253;28;20200;-87
2022/07/09 03:35:12;;;;;;;21.53;9.77;;;14.70;92.70;;;;;;5054421;28;20176;-87
2022/07/09 03:37:37;;;;;;;24.83;10.10;;;14.80;92.70;;;;;;5054176;28;20299;-87
2022/07/09 03:40:04;;;;;;;18.50;9.03;;;14.80;92.70;;;;;;5055669;28;20258;-86
2022/07/09 03:42:30;;;;;;;23.27;10.53;;;14.70;92.70;;;;;;5054462;28;20192;-87
2022/07/09 03:44:55;;;;;;;18.30;10.17;;;14.70;92.70;;;;;;5054288;28;20549;-87
2022/07/09 03:47:21;;;;;;;17.67;10.20;;;14.80;92.70;;;;;;5055864;28;20176;-86
2022/07/09 03:49:46;;;;;;;24.97;10.53;;;14.80;92.70;;;;;;5054358;28;20226;-87
2022/07/09 03:52:12;;;;;;;14.73;9.87;;;14.70;92.80;;;;;;5055879;28;20196;-88
2022/07/09 03:54:37;;;;;;;19.17;9.67;;;14.80;92.90;;;;;;5055664;28;20179;-87
2022/07/09 03:57:03;;;;;;;23.17;10.37;;;14.80;93.00;;;;;;5055386;28;20204;-88
2022/07/09 03:59:29;;;;;;;24.20;10.47;;;14.80;93.00;;;;;;5055576;28;20634;-88
2022/07/09 04:01:54;;;;;;;17.70;8.90;;;14.80;92.90;;;;;;5053773;28;20670;-86
2022/07/09 04:04:20;;;;;;;15.23;9.30;;;14.80;92.90;;;;;;5055085;28;20200;-88
2022/07/09 04:06:45;;;;;;;25.77;9.57;;;14.90;92.90;;;;;;5055193;28;20226;-87
2022/07/09 04:09:11;;;;;;;21.27;9.33;;;14.80;92.90;;;;;;5053833;28;20673;-87
2022/07/09 04:11:36;;;;;;;21.83;9.23;;;14.90;93.00;;;;;;5053596;28;20192;-87
2022/07/09 04:14:02;;;;;;;20.77;9.13;;;14.80;93.00;;;;;;5053764;28;20585;-88
2022/07/09 04:16:28;;;;;;;19.87;9.47;;;14.90;93.10;;;;;;5053667;28;20200;-87
2022/07/09 04:18:54;;;;;;;14.97;8.20;;;14.90;93.10;;;;;;5053498;28;20172;-87
2022/07/09 04:21:23;;;;;;;14.90;9.10;;;14.90;93.10;;;;;;5054684;28;20188;-87
2022/07/09 04:23:49;;;;;;;11.90;8.43;;;14.90;93.10;;;;;;5054640;28;20167;-87
2022/07/09 04:26:15;;;;;;;16.30;9.13;;;14.90;93.00;;;;;;5053454;28;20176;-87
2022/07/09 04:28:41;;;;;;;15.93;9.60;;;14.90;93.00;;;;;;5054886;28;20218;-88
2022/07/09 04:31:06;;;;;;;15.83;8.13;;;14.90;93.10;;;;;;5053372;28;20212;-87
2022/07/09 04:33:32;;;;;;;13.30;8.37;;;15.00;93.10;;;;;;5053552;28;20596;-88
2022/07/09 04:35:57;;;;;;;22.10;8.90;;;15.10;93.10;;;;;;5053399;28;20172;-88
2022/07/09 04:38:23;;;;;;;18.40;8.93;;;15.00;93.10;;;;;;5053285;28;20560;-88
2022/07/09 04:40:49;;;;;;;14.27;8.27;;;15.10;93.10;;;;;;5053329;28;20168;-87
2022/07/09 04:43:14;;;;;;;21.13;9.23;;;15.10;93.10;;;;;;5052962;28;20661;-88
2022/07/09 04:45:40;;;;;;;21.57;8.87;;;15.10;93.10;;;;;;5054435;28;20549;-87
2022/07/09 04:48:05;;;;;;;17.63;7.70;;;15.20;93.10;;;;;;5053094;28;20661;-87
2022/07/09 04:50:31;;;;;;;19.90;8.80;;;15.20;93.10;;;;;;5053208;28;20179;-88
2022/07/09 04:52:56;;;;;;;18.53;9.00;;;15.20;93.10;;;;;;5054176;28;20202;-88
2022/07/09 04:55:22;;;;;;;17.47;8.53;;;15.20;93.10;;;;;;5052566;28;20176;-87
2022/07/09 04:57:48;;;;;;;20.93;8.70;;;15.20;93.00;;;;;;5053830;28;20227;-88
2022/07/09 05:00:15;;;;;;;14.03;8.20;;;15.20;93.00;;;;;;5052686;28;20270;-87
2022/07/09 05:02:42;;;;;;;13.87;7.93;;;15.20;93.00;;;;;;5052809;28;20278;-87
2022/07/09 05:05:08;;;;;;;13.47;8.17;;;15.30;93.00;;;;;;5054053;28;20634;-88
2022/07/09 05:07:34;;;;;;;13.70;8.17;;;15.20;93.10;;;;;;5054084;28;20172;-88
2022/07/09 05:10:03;;;;;;;16.27;8.70;;;15.30;93.10;;;;;;5052745;28;20182;-88
2022/07/09 05:12:29;;;;;;;14.13;7.53;;;15.30;93.20;;;;;;5053691;28;20241;-87
2022/07/09 05:14:58;;;;;;;15.27;8.43;;;15.30;93.20;;;;;;5053725;28;20640;-88
2022/07/09 05:17:24;;;;;;;16.37;8.37;;;15.30;93.20;;;;;;5052417;28;20253;-87
2022/07/09 05:19:50;;;;;;;10.60;6.70;;;15.30;93.40;;;;;;5052364;28;20172;-87
2022/07/09 05:22:16;;;;;;;21.37;9.33;;;15.20;93.30;;;;;;5052373;28;20195;-88
2022/07/09 05:24:42;;;;;;;17.73;9.63;;;15.30;93.40;;;;;;5052264;28;20194;-88
2022/07/09 05:27:11;;;;;;;19.13;9.77;;;15.30;93.40;;;;;;5053464;28;20550;-88
2022/07/09 05:29:37;;;;;;;15.43;9.20;;;15.30;93.50;;;;;;5055442;28;20179;-88
2022/07/09 05:32:03;;;;;;;16.60;9.10;;;15.30;93.40;;;;;;5055674;28;20246;-86
2022/07/09 05:34:29;;;;;;;15.90;9.20;;;15.30;93.40;;;;;;5055420;28;20246;-88
2022/07/09 05:36:55;;;;;;;16.10;9.37;;;15.30;93.40;;;;;;5052336;28;20200;-88
2022/07/09 05:39:21;;;;;;;15.23;9.27;;;15.40;93.30;;;;;;5052096;28;20221;-88
2022/07/09 05:41:47;;;;;;;20.77;9.67;;;15.50;93.40;;;;;;5053316;28;20191;-88
2022/07/09 05:44:12;;;;;;;17.63;9.35;;;15.50;93.40;;;;;;5053339;28;20222;-87
2022/07/09 05:46:38;;;;;;;15.48;9.10;;;15.40;93.40;;;;;;5053570;28;20309;-87
2022/07/09 05:49:04;;;;;;;18.17;10.07;;;15.40;93.30;;;;;;5053237;28;20172;-88
2022/07/09 05:51:29;;;;;;;16.53;8.67;;;15.40;93.40;;;;;;5052110;28;20199;-88
2022/07/09 05:53:55;;;;;;;18.27;9.80;;;15.50;93.40;;;;;;5053663;28;20206;-88
2022/07/09 05:56:21;;;;;;;17.73;9.33;;;15.40;93.40;;;;;;5053186;28;20168;-89
2022/07/09 05:58:47;;;;;;;13.73;9.53;;;15.40;93.60;;;;;;5052348;28;20576;-87
2022/07/09 06:01:13;;;;;;;22.55;9.88;;;15.50;93.70;;;;;;5052080;28;20198;-88
2022/07/09 06:03:39;;;;;;;13.10;9.52;;;15.50;93.80;;;;;;5052061;28;20318;-88
2022/07/09 06:06:04;;;;;;;17.90;9.47;;;15.50;93.80;;;;;;5053286;28;20198;-87
2022/07/09 06:08:31;;;;;;;19.95;9.00;;;15.60;93.90;;;;;;5055896;28;20172;-89
2022/07/09 06:10:57;;;;;;;19.50;9.13;;;15.60;94.00;;;;;;5057467;28;20266;-87
2022/07/09 06:13:23;;;;;;;17.80;8.80;;;15.70;94.00;;;;;;5056526;28;20262;-88
2022/07/09 06:15:49;;;;;;;21.83;10.35;;;15.70;94.00;;;;;;5057441;28;20221;-88
2022/07/09 06:18:14;;;;;;;16.33;8.57;;;15.80;93.90;;;;;;5056298;28;20231;-88
2022/07/09 06:20:40;;;;;;;23.23;10.07;;;15.80;93.80;;;;;;5056117;28;20259;-88
2022/07/09 06:23:06;;;;;;;13.32;8.43;;;15.80;93.80;;;;;;5057451;28;20169;-88
2022/07/09 06:25:32;;;;;;;17.50;8.07;;;15.80;93.80;;;;;;5056044;28;20567;-88
2022/07/09 06:27:58;;;;;;;16.92;9.05;;;15.90;93.90;;;;;;5056947;28;20168;-89
2022/07/09 06:30:23;;;;;;;13.80;7.55;;;16.00;93.90;;;;;;5055486;28;20265;-89
2022/07/09 06:32:50;;;;;;;16.52;8.38;;;16.00;93.80;;;;;;5056670;28;20275;-89
2022/07/09 06:35:16;;;;;;;16.33;8.63;;;16.10;93.80;;;;;;5057110;28;20169;-87
2022/07/09 06:37:41;;;;;;;19.27;7.70;;;16.20;93.80;;;;;;5056661;28;20195;-88
2022/07/09 06:40:08;;;;;;;12.43;7.25;;;16.20;93.70;;;;;;5055317;28;20176;-88
2022/07/09 06:42:33;;;;;;;12.40;6.82;;;16.20;93.60;;;;;;5056429;28;20188;-87
2022/07/09 06:44:59;;;;;;;11.70;6.85;;;16.30;93.60;;;;;;5056272;28;20533;-87
2022/07/09 06:47:24;;;;;;;12.77;6.45;;;16.40;93.50;;;;;;5056280;28;20180;-86
2022/07/09 06:49:50;;;;;;;14.98;7.18;;;16.40;93.30;;;;;;5056514;28;20178;-87
2022/07/09 06:52:16;;;;;;;10.82;6.20;;;16.60;93.20;;;;;;5054943;28;20192;-87
2022/07/09 06:54:41;;;;;;;13.05;6.45;;;16.70;92.90;;;;;;5054993;28;20646;-86
2022/07/09 06:57:09;;;;;;;16.15;6.75;;;16.70;92.60;;;;;;5054848;28;20208;-88
2022/07/09 06:59:35;;;;;;;12.75;6.05;;;16.60;92.30;;;;;;5056186;28;20149;-87
2022/07/09 07:02:00;;;;;;;11.55;5.38;;;16.60;92.10;;;;;;5056335;28;20727;-87
2022/07/09 07:04:26;;;;;;;9.55;5.03;;;16.60;91.60;;;;;;5054866;28;20175;-86
2022/07/09 07:06:52;;;;;;;11.20;5.97;;;16.70;91.70;;;;;;5054798;28;20176;-87
2022/07/09 07:09:18;;;;;;;10.40;5.85;;;17.00;91.90;;;;;;5057576;28;20180;-87
2022/07/09 07:11:48;;;;;;;10.30;5.57;;;17.10;91.70;;;;;;5056105;28;20692;-87
2022/07/09 07:14:14;;;;;;;8.10;5.35;;;17.20;91.50;;;;;;5054807;28;20252;-87
2022/07/09 07:16:39;;;;;;;10.98;5.88;;;17.20;91.30;;;;;;5054635;28;20204;-87
2022/07/09 07:19:05;;;;;;;7.53;5.00;;;17.30;91.30;;;;;;5054184;28;20519;-87
2022/07/09 07:21:31;;;;;;;9.38;5.50;;;17.20;91.10;;;;;;5055058;28;20204;-87
2022/07/09 07:23:56;;;;;;;11.80;5.18;;;17.20;91.10;;;;;;5054542;28;20199;-89
2022/07/09 07:26:22;;;;;;;12.20;5.22;;;17.20;91.20;;;;;;5056066;28;20167;-88
2022/07/09 07:28:48;;;;;;;11.10;5.38;;;17.20;91.20;;;;;;5054420;28;20536;-87
2022/07/09 07:31:14;;;;;;;11.90;4.60;;;17.20;91.20;;;;;;5054606;28;20196;-88
2022/07/09 07:33:40;;;;;;;9.73;4.93;;;17.30;91.20;;;;;;5055578;28;20175;-86
2022/07/09 07:36:06;;;;;;;8.13;5.00;;;17.40;90.90;;;;;;5054521;28;20168;-88
2022/07/09 07:38:33;;;;;;;13.63;5.10;;;17.40;90.80;;;;;;5054290;28;20657;-88
2022/07/09 07:40:58;;;;;;;12.48;4.47;;;17.50;90.70;;;;;;5054281;28;20203;-89
2022/07/09 07:43:24;;;;;;;6.70;4.18;;;17.70;90.90;;;;;;5055710;28;20176;-87
2022/07/09 07:45:50;;;;;;;6.60;3.40;;;18.00;90.80;;;;;;5054322;28;20176;-86
2022/07/09 07:48:15;;;;;;;5.47;3.05;;;18.00;89.50;;;;;;5054296;28;20549;-87
2022/07/09 07:50:41;;;;;;;7.55;2.97;;;18.00;88.60;;;;;;5055434;28;20174;-87
2022/07/09 07:53:06;;;;;;;11.52;3.20;;;18.20;88.00;;;;;;5055177;28;20271;-87
2022/07/09 07:55:32;;;;;;;5.32;2.63;;;18.30;87.50;;;;;;5055810;28;20203;-86
2022/07/09 07:57:58;;;;;;;5.47;2.55;;;18.30;85.90;;;;;;5054171;28;20208;-86
2022/07/09 08:00:24;;;;;;;12.63;2.60;;;18.20;85.70;;;;;;5054266;28;20168;-86
2022/07/09 08:02:49;;;;;;;6.90;2.35;;;18.10;85.50;;;;;;5054852;28;20711;-87
2022/07/09 08:05:15;;;;;;;6.00;2.28;;;17.90;85.10;;;;;;5054198;28;20545;-87
2022/07/09 08:07:41;;;;;;;7.43;3.30;;;17.90;85.00;;;;;;5055373;28;20709;-87
2022/07/09 08:10:07;;;;;;;4.43;2.72;;;18.20;86.00;;;;;;5054128;28;20180;-87
2022/07/09 08:12:33;;;;;;;3.72;1.95;;;18.50;85.30;;;;;;5053699;28;20243;-86
2022/07/09 08:14:58;;;;;;;5.32;2.47;;;18.30;84.00;;;;;;5054886;28;20176;-86
2022/07/09 08:17:24;;;;;;;14.32;2.85;;;18.50;84.50;;;;;;5053754;28;20603;-85
2022/07/09 08:19:50;;;;;;;7.45;2.97;;;18.90;84.20;;;;;;5053712;28;20719;-86
2022/07/09 08:22:16;;;;;;;8.15;3.60;;;19.00;84.40;;;;;;5055164;28;20218;-86
2022/07/09 08:24:41;;;;;;;6.95;2.45;;;18.80;82.70;;;;;;5055130;28;20184;-86
2022/07/09 08:27:07;;;;;;;6.85;2.10;;;18.80;83.10;;;;;;5054897;28;20199;-87
2022/07/09 08:29:33;;;;;;;5.22;1.85;;;19.00;82.20;;;;;;5053520;28;20180;-87
2022/07/09 08:31:58;;;;;;;6.65;1.77;;;19.40;82.20;;;;;;5053312;28;20666;-86
2022/07/09 08:34:24;;;;;;;8.88;2.08;;;19.50;79.70;;;;;;5053430;28;20226;-87
2022/07/09 08:36:50;;;;;;;4.90;2.10;;;19.60;80.20;;;;;;5054653;28;20696;-87
2022/07/09 08:39:15;;;;;;;8.32;2.58;;;19.20;80.50;;;;;;5054639;28;20214;-87
2022/07/09 08:41:43;;;;;;;6.47;2.40;;;18.90;81.70;;;;;;5053445;28;20200;-86
2022/07/09 08:44:11;;;;;;;6.13;2.40;;;18.80;81.80;;;;;;5053368;28;20584;-87
2022/07/09 08:46:36;;;;;;;9.60;2.00;;;18.90;81.40;;;;;;5053372;28;20176;-87
2022/07/09 08:49:03;;;;;;;4.38;1.90;;;19.00;81.00;;;;;;5053294;28;20183;-87
2022/07/09 08:51:30;;;;;;;3.10;1.48;;;19.20;80.00;;;;;;5053024;28;20589;-87
2022/07/09 08:53:56;;;;;;;6.22;2.35;;;19.30;79.40;;;;;;5054421;28;20172;-86
2022/07/09 08:56:22;;;;;;;9.77;1.77;;;19.60;79.00;;;;;;5053500;28;20199;-87
2022/07/09 08:58:47;;;;;;;4.28;2.00;;;19.80;78.00;;;;;;5053330;28;20179;-87
2022/07/09 09:01:14;;;;;;;4.43;1.52;;;19.90;78.70;;;;;;5052878;28;20196;-87
2022/07/09 09:03:41;;;;;;;5.57;1.83;;;20.30;78.60;;;;;;5054157;28;20185;-87
2022/07/09 09:06:08;;;;;;;5.72;1.73;;;20.50;77.80;;;;;;5053052;28;20194;-86
2022/07/09 09:08:44;;;;;;;6.75;2.05;;;20.90;75.90;;;;;;5052799;28;20226;-87
2022/07/09 09:11:16;;;;;;;5.75;1.88;;;21.00;75.70;;;;;;5052831;28;20195;-87
2022/07/09 09:13:44;;;;;;;4.72;1.60;;;21.20;73.50;;;;;;5054692;28;20259;-85
2022/07/09 09:16:11;;;;;;;7.10;1.90;;;20.30;75.10;;;;;;5053013;28;20661;-87
2022/07/09 09:18:40;;;;;;;6.35;1.70;;;20.50;75.10;;;;;;5054494;28;20176;-86
2022/07/09 09:21:07;;;;;;;3.97;1.80;;;20.40;75.20;;;;;;5052831;28;20200;-87
2022/07/09 09:23:49;;;;;;;5.18;1.88;;;20.20;74.80;;;;;;5054020;28;20174;-87
2022/07/09 09:26:24;;;;;;;4.05;1.80;;;20.00;77.10;;;;;;5055498;28;20175;-86
2022/07/09 09:28:56;;;;;;;5.38;1.90;;;19.90;75.90;;;;;;5052820;28;20214;-86
2022/07/09 09:31:27;;;;;;;3.78;1.42;;;20.20;76.60;;;;;;5052775;28;20188;-86
2022/07/09 09:33:58;;;;;;;3.67;1.52;;;20.50;75.50;;;;;;5052639;28;20179;-87
2022/07/09 09:36:34;;;;;;;3.67;1.40;;;20.90;74.60;;;;;;5053925;28;20236;-86
2022/07/09 09:39:12;;;;;;;4.90;1.77;;;20.80;71.10;;;;;;5052745;28;20676;-86
2022/07/09 09:41:38;;;;;;;3.75;1.23;;;20.20;74.60;;;;;;5052283;28;20231;-86
2022/07/09 09:44:12;;;;;;;4.30;1.50;;;20.20;75.00;;;;;;5052360;28;20183;-85
2022/07/09 09:46:39;;;;;;;12.98;2.10;;;20.50;75.00;;;;;;5052477;28;20545;-88
2022/07/09 09:49:07;;;;;;;7.15;2.25;;;20.70;73.50;;;;;;5052877;28;20663;-87
2022/07/09 09:51:36;;;;;;;5.85;2.25;;;20.50;72.80;;;;;;5053316;28;20286;-87
2022/07/09 09:54:03;;;;;;;6.20;1.60;;;20.40;73.70;;;;;;5053014;28;20238;-86
2022/07/09 09:56:30;;;;;;;5.50;1.50;;;20.70;73.20;;;;;;5052000;28;20729;-86
2022/07/09 09:58:57;;;;;;;4.82;2.05;;;20.80;75.00;;;;;;5053689;28;20520;-86
2022/07/09 10:01:23;;;;;;;1.98;1.15;;;21.10;71.90;;;;;;5056239;28;20192;-86
2022/07/09 10:03:49;;;;;;;4.78;1.35;;;21.20;71.90;;;;;;5055845;28;20552;-86
2022/07/09 10:06:15;;;;;;;3.55;1.30;;;21.10;71.00;;;;;;5056947;28;20638;-87
2022/07/09 10:08:41;;;;;;;2.60;1.45;;;21.10;71.70;;;;;;5055822;28;20287;-86
2022/07/09 10:11:06;;;;;;;4.25;1.50;;;20.70;72.80;;;;;;5054407;28;20224;-86
2022/07/09 10:13:32;;;;;;;5.55;1.88;;;20.40;72.90;;;;;;5053760;28;20230;-87
2022/07/09 10:15:59;;;;;;;5.88;1.83;;;20.70;72.10;;;;;;5052166;28;20176;-87
2022/07/09 10:18:24;;;;;;;4.43;1.60;;;20.20;74.20;;;;;;5053697;28;20192;-86
2022/07/09 10:20:57;;;;;;;8.68;1.63;;;20.10;75.30;;;;;;5053155;28;20179;-87
2022/07/09 10:23:24;;;;;;;7.70;1.90;;;19.50;77.50;;;;;;5052892;28;20164;-85
2022/07/09 10:25:52;;;;;;;5.00;1.85;;;19.10;80.30;;;;;;5052214;28;20222;-86
2022/07/09 10:28:19;;;;;;;6.05;1.65;;;18.90;82.00;;;;;;5052493;28;20642;-86
2022/07/09 10:30:46;;;;;;;7.60;2.10;;;18.70;81.90;;;;;;5052039;28;20184;-87
2022/07/09 10:33:18;;;;;;;7.28;1.70;;;18.70;82.80;;;;;;5052110;28;20168;-86
2022/07/09 10:35:45;;;;;;;6.20;1.92;;;19.20;82.80;;;;;;5053082;28;20164;-86
2022/07/09 10:38:12;;;;;;;3.78;1.27;;;19.80;79.00;;;;;;5053524;28;20230;-86
2022/07/09 10:40:40;;;;;;;5.38;1.90;;;20.00;76.50;;;;;;5053089;28;20699;-87
2022/07/09 10:43:05;;;;;;;7.90;2.05;;;20.40;76.50;;;;;;5053049;28;20195;-86
2022/07/09 10:45:34;;;;;;;3.63;1.60;;;20.70;75.90;;;;;;5053444;28;20630;-86
2022/07/09 10:48:01;;;;;;;3.90;1.33;;;21.20;75.30;;;;;;5052057;28;20190;-85
2022/07/09 10:50:29;;;;;;;6.25;1.63;;;21.40;74.30;;;;;;5051916;28;20176;-86
2022/07/09 10:52:55;;;;;;;4.72;1.50;;;21.00;74.20;;;;;;5053287;28;20195;-85
2022/07/09 10:55:25;;;;;;;4.90;1.50;;;21.50;72.50;;;;;;5056779;28;20165;-86
2022/07/09 10:57:52;;;;;;;3.97;1.65;;;21.20;72.30;;;;;;5056917;28;20184;-86
2022/07/09 11:00:29;;;;;;;3.42;1.15;;;21.30;72.40;;;;;;5055302;28;20267;-86
2022/07/09 11:03:03;;;;;;;6.40;1.52;;;21.70;69.20;;;;;;5055338;28;20191;-86
2022/07/09 11:05:31;;;;;;;2.45;1.05;;;21.30;69.50;;;;;;5055208;28;20172;-87
2022/07/09 11:08:02;;;;;;;7.32;1.45;;;21.20;70.10;;;;;;5055081;28;20187;-86
2022/07/09 11:10:29;;;;;;;2.90;1.13;;;21.60;69.70;;;;;;5055381;28;20176;-86
2022/07/09 11:12:58;;;;;;;2.13;1.20;;;21.70;68.20;;;;;;5055014;28;20231;-85
2022/07/09 11:15:26;;;;;;;2.15;1.25;;;21.40;67.00;;;;;;5054998;28;20176;-85
2022/07/09 11:18:11;;;;;;;3.33;1.25;;;21.60;66.20;;;;;;5054703;28;20227;-86
2022/07/09 11:20:45;;;;;;;6.72;1.15;;;21.80;67.30;;;;;;5054786;28;20601;-86
2022/07/09 11:23:12;;;;;;;4.35;1.45;;;21.80;68.30;;;;;;5055165;28;20167;-87
2022/07/09 11:25:38;;;;;;;5.78;1.70;;;21.70;66.50;;;;;;5054873;28;20211;-87
2022/07/09 11:28:04;;;;;;;5.63;1.60;;;21.80;66.70;;;;;;5055920;28;20271;-85
2022/07/09 11:30:32;;;;;;;5.72;1.45;;;21.60;69.30;;;;;;5055883;28;20660;-87
2022/07/09 11:32:58;;;;;;;6.70;1.70;;;21.80;66.80;;;;;;5056077;28;20615;-85
2022/07/09 11:35:31;;;;;;;6.85;1.70;;;22.10;65.90;;;;;;5054627;28;20185;-88
2022/07/09 11:37:58;;;;;;;5.32;1.60;;;22.30;63.60;;;;;;5054506;28;20311;-88
2022/07/09 11:40:24;;;;;;;2.42;1.35;;;22.30;63.30;;;;;;5054472;28;20642;-89
2022/07/09 11:42:50;;;;;;;6.70;1.73;;;22.40;64.10;;;;;;5054723;28;20195;-88
2022/07/09 11:45:21;;;;;;;7.97;2.08;;;22.40;63.70;;;;;;5054447;28;20179;-87
2022/07/09 11:47:46;;;;;;;6.47;1.30;;;22.00;65.90;;;;;;5055278;28;20174;-88
2022/07/09 11:50:15;;;;;;;5.88;1.63;;;21.80;63.00;;;;;;5055400;28;20258;-88
2022/07/09 11:52:45;;;;;;;6.38;1.52;;;21.80;64.70;;;;;;5056044;28;20188;-88
2022/07/09 11:55:14;;;;;;;10.73;3.30;;;22.10;63.50;;;;;;5055288;28;20184;-90
2022/07/09 11:57:49;;;;;;;5.63;2.08;;;22.40;64.50;;;;;;5055037;28;20290;-87
2022/07/09 12:00:23;;;;;;;4.32;1.63;;;22.40;62.10;;;;;;5054630;28;20175;-86
2022/07/09 12:02:49;;;;;;;9.68;2.60;;;22.40;62.20;;;;;;5055227;28;20558;-87
2022/07/09 12:05:25;;;;;;;8.88;2.83;;;22.50;63.30;;;;;;5052694;28;20168;-87
2022/07/09 12:07:54;;;;;;;9.88;2.33;;;22.40;62.10;;;;;;5055437;28;20175;-89
2022/07/09 12:10:28;;;;;;;8.23;1.83;;;22.20;61.50;;;;;;5055763;28;20183;-87
2022/07/09 12:12:54;;;;;;;6.07;1.73;;;22.50;63.90;;;;;;5055374;28;20274;-88
2022/07/09 12:15:20;;;;;;;7.70;1.98;;;21.70;63.10;;;;;;5054980;28;20172;-87
2022/07/09 12:17:52;;;;;;;9.25;2.40;;;21.30;65.80;;;;;;5055355;28;20206;-86
2022/07/09 12:20:17;;;;;;;12.02;2.50;;;22.00;63.70;;;;;;5054943;28;20152;-86
2022/07/09 12:22:43;;;;;;;10.57;1.88;;;21.70;62.40;;;;;;5054853;28;20540;-87
2022/07/09 12:25:09;;;;;;;8.88;2.38;;;21.30;62.70;;;;;;5053424;28;20615;-87
2022/07/09 12:27:34;;;;;;;8.25;1.85;;;21.90;62.90;;;;;;5055082;28;20175;-86
2022/07/09 12:30:00;;;;;;;4.22;1.58;;;21.70;63.60;;;;;;5053499;28;20175;-85
2022/07/09 12:32:25;;;;;;;13.93;2.53;;;21.70;61.60;;;;;;5054511;28;20242;-86
2022/07/09 12:34:51;;;;;;;17.95;2.70;;;21.70;61.20;;;;;;5053496;28;20175;-87
2022/07/09 12:37:16;;;;;;;2.28;1.20;;;21.90;58.00;;;;;;5053584;28;20219;-87